createdAt,value
2023-05-14T00:00:25.218Z,6.28
2023-05-14T00:01:27.152Z,7.43
2023-05-14T00:02:28.892Z,6.07
2023-05-14T00:03:31.139Z,8.73
2023-05-14T00:04:34.883Z,6.82
2023-05-14T00:05:37.029Z,6.70
2023-05-14T00:06:38.768Z,7.40
2023-05-14T00:07:40.843Z,7.85
2023-05-14T00:08:42.485Z,7.47
2023-05-14T00:09:44.850Z,5.63
2023-05-14T00:10:47.082Z,6.72
2023-05-14T00:11:48.830Z,4.97
2023-05-14T00:12:51.812Z,5.00
2023-05-14T00:13:53.442Z,5.70
2023-05-14T00:14:55.156Z,4.82
2023-05-14T00:15:57.954Z,6.63
2023-05-14T00:17:02.532Z,6.07
2023-05-14T00:18:04.311Z,5.45
2023-05-14T00:19:06.105Z,4.97
2023-05-14T00:20:08.063Z,5.25
2023-05-14T00:21:12.436Z,7.40
2023-05-14T00:22:14.111Z,4.95
2023-05-14T00:23:15.796Z,5.60
2023-05-14T00:24:17.493Z,6.97
2023-05-14T00:25:19.441Z,6.20
2023-05-14T00:26:21.859Z,5.88
2023-05-14T00:27:23.742Z,7.13
2023-05-14T00:28:25.546Z,4.72
2023-05-14T00:29:27.378Z,4.72
2023-05-14T00:30:32.216Z,6.95
2023-05-14T00:31:36.593Z,5.75
2023-05-14T00:32:38.285Z,5.85
2023-05-14T00:33:41.087Z,5.43
2023-05-14T00:34:42.864Z,4.38
2023-05-14T00:35:46.062Z,4.10
2023-05-14T00:36:48.129Z,6.32
2023-05-14T00:37:52.118Z,4.38
2023-05-14T00:38:54.019Z,5.57
2023-05-14T00:39:56.957Z,6.65
2023-05-14T00:41:01.247Z,5.07
2023-05-14T00:42:03.092Z,5.18
2023-05-14T00:43:07.123Z,5.35
2023-05-14T00:44:08.894Z,6.13
2023-05-14T00:45:11.048Z,6.97
2023-05-14T00:46:12.863Z,5.93
2023-05-14T00:47:15.080Z,6.13
2023-05-14T00:48:17.050Z,4.68
2023-05-14T00:49:18.958Z,5.15
2023-05-14T00:50:21.506Z,5.15
2023-05-14T00:51:23.853Z,5.53
2023-05-14T00:52:25.753Z,6.20
2023-05-14T00:53:28.777Z,6.30
2023-05-14T00:54:30.649Z,4.93
2023-05-14T00:55:32.608Z,5.20
2023-05-14T00:56:35.171Z,6.15
2023-05-14T00:57:37.307Z,6.13
2023-05-14T00:58:39.053Z,6.20
2023-05-14T00:59:42.825Z,4.93
2023-05-14T01:00:44.931Z,5.30
2023-05-14T01:01:47.677Z,4.55
2023-05-14T01:02:52.074Z,4.53
2023-05-14T01:03:58.395Z,5.32
2023-05-14T01:05:01.243Z,7.80
2023-05-14T01:06:26.473Z,6.00
2023-05-14T01:07:37.961Z,6.32
2023-05-14T01:08:58.548Z,4.78
2023-05-14T01:10:06.812Z,4.70
2023-05-14T01:11:17.748Z,7.18
2023-05-14T01:12:19.383Z,4.57
2023-05-14T01:13:21.308Z,5.85
2023-05-14T01:14:43.023Z,7.13
2023-05-14T01:15:46.659Z,4.88
2023-05-14T01:16:54.127Z,6.57
2023-05-14T01:18:10.670Z,5.10
2023-05-14T01:19:22.937Z,4.90
2023-05-14T01:21:35.026Z,7.43
2023-05-14T01:31:55.668Z,5.65
2023-05-14T01:33:03.221Z,5.88
2023-05-14T01:34:05.791Z,6.75
2023-05-14T01:35:08.146Z,5.47
2023-05-14T01:36:10.307Z,8.65
2023-05-14T01:37:13.019Z,7.15
2023-05-14T01:38:17.565Z,8.77
2023-05-14T01:39:19.381Z,6.35
2023-05-14T01:40:21.206Z,5.78
2023-05-14T01:41:24.467Z,5.43
2023-05-14T01:42:26.341Z,5.70
2023-05-14T01:43:28.873Z,5.78
2023-05-14T01:44:31.224Z,6.47
2023-05-14T01:45:34.984Z,7.40
2023-05-14T01:46:36.750Z,7.35
2023-05-14T01:47:38.396Z,6.78
2023-05-14T01:48:41.577Z,7.47
2023-05-14T01:49:44.895Z,6.05
2023-05-14T01:50:46.521Z,6.18
2023-05-14T01:51:48.199Z,5.78
2023-05-14T01:52:51.397Z,5.05
2023-05-14T01:53:54.042Z,5.10
2023-05-14T01:54:55.705Z,5.80
2023-05-14T01:55:57.401Z,5.32
2023-05-14T01:56:59.067Z,6.13
2023-05-14T01:58:01.894Z,6.18
2023-05-14T01:59:05.172Z,5.65
2023-05-14T02:00:07.291Z,5.38
2023-05-14T02:01:08.938Z,6.35
2023-05-14T02:02:10.670Z,6.45
2023-05-14T02:03:13.532Z,6.53
2023-05-14T02:04:18.364Z,6.05
2023-05-14T02:05:20.133Z,8.35
2023-05-14T02:06:21.792Z,6.22
2023-05-14T02:07:23.868Z,8.05
2023-05-14T02:08:25.531Z,7.07
2023-05-14T02:09:27.812Z,7.53
2023-05-14T02:10:30.978Z,5.78
2023-05-14T02:11:32.766Z,7.00
2023-05-14T02:12:34.796Z,6.07
2023-05-14T02:13:36.642Z,7.40
2023-05-14T02:14:38.341Z,5.03
2023-05-14T02:15:39.943Z,5.30
2023-05-14T02:16:42.195Z,5.82
2023-05-14T02:17:43.918Z,7.05
2023-05-14T02:18:46.643Z,6.22
2023-05-14T02:19:51.404Z,6.78
2023-05-14T02:20:53.041Z,6.43
2023-05-14T02:21:54.838Z,5.82
2023-05-14T02:22:56.886Z,6.32
2023-05-14T02:24:01.031Z,7.10
2023-05-14T02:25:02.696Z,4.65
2023-05-14T02:26:04.272Z,7.45
2023-05-14T02:27:07.028Z,7.07
2023-05-14T02:28:08.928Z,6.03
2023-05-14T02:29:10.538Z,7.40
2023-05-14T02:30:13.083Z,6.45
2023-05-14T02:31:17.756Z,8.40
2023-05-14T02:32:19.409Z,5.93
2023-05-14T02:33:22.521Z,5.95
2023-05-14T02:34:27.889Z,8.48
2023-05-14T02:35:29.866Z,5.97
2023-05-14T02:36:32.034Z,5.72
2023-05-14T02:37:34.928Z,6.78
2023-05-14T02:38:37.060Z,5.50
2023-05-14T02:39:39.782Z,6.57
2023-05-14T02:40:43.904Z,6.00
2023-05-14T02:41:47.863Z,5.18
2023-05-14T02:42:49.529Z,5.18
2023-05-14T02:43:52.579Z,7.07
2023-05-14T02:44:54.190Z,6.25
2023-05-14T02:45:56.956Z,5.85
2023-05-14T02:46:58.630Z,7.03
2023-05-14T02:48:00.891Z,7.97
2023-05-14T02:49:03.385Z,8.15
2023-05-14T02:50:06.946Z,7.13
2023-05-14T02:51:08.608Z,6.65
2023-05-14T02:52:10.191Z,6.00
2023-05-14T02:53:12.159Z,6.88
2023-05-14T02:54:14.506Z,6.00
2023-05-14T02:55:16.397Z,6.88
2023-05-14T02:56:17.986Z,6.45
2023-05-14T02:57:19.614Z,6.25
2023-05-14T02:58:26.168Z,7.68
2023-05-14T02:59:30.067Z,6.10
2023-05-14T03:00:32.276Z,6.43
2023-05-14T03:01:34.405Z,8.82
2023-05-14T03:02:36.945Z,5.80
2023-05-14T03:03:39.254Z,5.97
2023-05-14T03:04:41.409Z,5.65
2023-05-14T03:05:42.993Z,6.50
2023-05-14T03:06:44.596Z,6.13
2023-05-14T03:07:48.403Z,7.43
2023-05-14T03:08:50.007Z,6.30
2023-05-14T03:09:51.701Z,7.28
2023-05-14T03:10:53.382Z,6.97
2023-05-14T03:11:55.130Z,6.18
2023-05-14T03:12:56.777Z,6.68
2023-05-14T03:13:58.355Z,6.03
2023-05-14T03:15:00.212Z,6.15
2023-05-14T03:16:01.803Z,5.88
2023-05-14T03:17:04.201Z,5.82
2023-05-14T03:18:09.547Z,7.28
2023-05-14T03:19:11.429Z,7.80
2023-05-14T05:43:47.850Z,7.65
2023-05-14T05:44:51.736Z,7.43
2023-05-14T05:45:53.944Z,6.97
2023-05-14T05:46:57.520Z,6.88
2023-05-14T05:47:59.534Z,7.95
2023-05-14T05:49:05.315Z,6.38
2023-05-14T05:50:07.709Z,6.88
2023-05-14T05:51:10.468Z,7.72
2023-05-14T05:52:12.946Z,7.13
2023-05-14T05:53:16.738Z,7.00
2023-05-14T05:54:18.342Z,5.82
2023-05-14T05:55:22.706Z,6.95
2023-05-14T05:56:24.470Z,6.90
2023-05-14T05:57:27.339Z,7.18
2023-05-14T05:58:29.369Z,7.43
2023-05-14T05:59:31.211Z,7.70
2023-05-14T06:00:33.732Z,8.93
2023-05-14T06:01:35.452Z,7.50
2023-05-14T06:02:37.339Z,7.35
2023-05-14T06:03:40.385Z,7.97
2023-05-14T06:04:42.014Z,6.78
2023-05-14T06:05:44.801Z,8.30
2023-05-14T06:06:46.510Z,8.30
2023-05-14T06:07:48.206Z,7.50
2023-05-14T06:08:49.858Z,6.72
2023-05-14T06:09:51.460Z,7.40
2023-05-14T06:10:53.069Z,6.97
2023-05-14T06:11:54.649Z,7.97
2023-05-14T06:12:56.244Z,7.78
2023-05-14T06:13:57.942Z,7.23
2023-05-14T06:14:59.524Z,7.72
2023-05-14T06:16:03.388Z,7.85
2023-05-14T06:17:08.189Z,6.95
2023-05-14T06:18:10.024Z,6.50
2023-05-14T06:19:12.014Z,7.75
2023-05-14T06:20:14.993Z,7.32
2023-05-14T06:21:16.939Z,8.88
2023-05-14T06:22:18.649Z,7.45
2023-05-14T06:23:20.277Z,7.53
2023-05-14T06:24:21.898Z,6.30
2023-05-14T06:25:23.495Z,6.93
2023-05-14T06:26:25.061Z,8.30
2023-05-14T06:27:26.660Z,8.38
2023-05-14T06:28:28.756Z,7.28
2023-05-14T06:29:30.579Z,5.93
2023-05-14T06:30:33.168Z,7.65
2023-05-14T06:31:34.838Z,7.03
2023-05-14T06:32:37.868Z,9.60
2023-05-14T06:33:39.581Z,7.35
2023-05-14T06:34:44.355Z,8.68
2023-05-14T06:35:47.044Z,6.47
2023-05-14T06:36:48.641Z,9.00
2023-05-14T06:37:50.237Z,8.23
2023-05-14T06:38:51.892Z,7.68
2023-05-14T06:39:55.776Z,5.60
2023-05-14T06:40:58.698Z,7.28
2023-05-14T06:42:00.364Z,8.27
2023-05-14T06:43:01.927Z,7.78
2023-05-14T06:44:03.838Z,6.65
2023-05-14T06:45:06.459Z,6.68
2023-05-14T06:46:08.886Z,7.68
2023-05-14T06:47:10.843Z,8.02
2023-05-14T06:48:13.603Z,8.30
2023-05-14T06:49:16.780Z,8.85
2023-05-14T06:50:18.558Z,7.65
2023-05-14T06:51:20.190Z,8.35
2023-05-14T06:52:21.808Z,9.57
2023-05-14T06:53:23.414Z,8.90
2023-05-14T06:54:25.138Z,6.25
2023-05-14T06:55:26.750Z,8.73
2023-05-14T06:56:28.337Z,7.05
2023-05-14T06:57:29.933Z,7.47
2023-05-14T06:58:31.610Z,7.18
2023-05-14T06:59:35.845Z,7.00
2023-05-14T07:51:28.791Z,8.68
2023-05-14T07:52:30.472Z,6.70
2023-05-14T07:53:35.552Z,6.70
2023-05-14T07:54:37.217Z,7.07
2023-05-14T07:55:38.843Z,7.80
2023-05-14T07:56:40.509Z,8.27
2023-05-14T07:57:42.081Z,7.60
2023-05-14T08:45:51.624Z,6.13
2023-05-14T08:46:54.319Z,5.72
2023-05-14T08:47:56.333Z,5.82
2023-05-14T08:49:04.412Z,5.22
2023-05-14T08:50:07.634Z,5.60
2023-05-14T08:51:09.721Z,5.70
2023-05-14T08:52:11.729Z,7.10
2023-05-14T08:53:14.452Z,4.53
2023-05-14T08:54:17.267Z,5.28
2023-05-14T08:55:19.081Z,6.55
2023-05-14T08:56:22.101Z,6.40
2023-05-14T08:57:25.728Z,5.82
2023-05-14T08:58:29.001Z,5.22
2023-05-14T08:59:31.363Z,4.65
2023-05-14T09:00:33.158Z,4.90
2023-05-14T09:01:34.865Z,5.68
2023-05-14T09:02:37.310Z,5.13
2023-05-14T09:03:39.914Z,4.57
2023-05-14T09:04:42.033Z,5.50
2023-05-14T09:05:44.238Z,4.05
2023-05-14T09:06:48.874Z,5.93
2023-05-14T09:08:53.077Z,5.00
2023-05-14T09:09:54.744Z,5.03
2023-05-14T09:10:57.633Z,5.43
2023-05-14T09:11:59.332Z,4.05
2023-05-14T09:13:01.085Z,4.25
2023-05-14T09:14:02.708Z,4.75
2023-05-14T09:15:05.180Z,5.10
2023-05-14T09:16:07.096Z,4.80
2023-05-14T09:17:09.075Z,5.63
2023-05-14T09:18:11.115Z,4.30
2023-05-14T09:19:13.685Z,4.65
2023-05-14T09:20:15.885Z,4.53
2023-05-14T09:21:18.479Z,4.32
2023-05-14T09:22:20.298Z,4.70
2023-05-14T09:23:22.010Z,4.35
2023-05-14T09:24:25.089Z,4.88
2023-05-14T09:25:27.604Z,5.68
2023-05-14T09:26:31.731Z,6.25
2023-05-14T09:27:33.973Z,5.47
2023-05-14T09:28:35.880Z,4.55
2023-05-14T09:29:37.857Z,5.68
2023-05-14T09:30:39.580Z,5.63
2023-05-14T09:31:41.403Z,5.82
2023-05-14T09:32:46.749Z,7.75
2023-05-14T09:33:51.622Z,4.43
2023-05-14T09:34:53.241Z,6.07
2023-05-14T09:35:59.540Z,4.22
2023-05-14T09:37:02.496Z,4.25
2023-05-14T09:38:07.312Z,3.78
2023-05-14T09:39:09.161Z,3.80
2023-05-14T09:40:12.124Z,5.30
2023-05-14T09:41:13.796Z,3.90
2023-05-14T09:42:16.913Z,5.43
2023-05-14T09:43:18.700Z,5.45
2023-05-14T09:44:20.931Z,4.55
2023-05-14T09:45:22.617Z,4.72
2023-05-14T09:46:24.348Z,4.32
2023-05-14T09:47:26.746Z,4.20
2023-05-14T09:48:29.059Z,4.93
2023-05-14T09:49:30.693Z,5.05
2023-05-14T09:50:32.380Z,5.72
2023-05-14T09:51:34.420Z,5.15
2023-05-14T09:52:36.570Z,4.32
2023-05-14T09:53:38.750Z,4.97
2023-05-14T09:54:40.433Z,5.07
2023-05-14T09:55:42.076Z,5.30
2023-05-14T09:56:44.101Z,4.07
2023-05-14T09:57:45.716Z,3.90
2023-05-14T09:58:47.602Z,4.70
2023-05-14T09:59:49.339Z,4.53
2023-05-14T10:00:51.202Z,4.35
2023-05-14T10:01:53.058Z,5.00
2023-05-14T10:02:55.299Z,5.15
2023-05-14T10:03:57.232Z,4.57
2023-05-14T10:05:01.211Z,4.72
2023-05-14T10:06:05.819Z,5.20
2023-05-14T10:07:07.628Z,5.43
2023-05-14T10:08:11.434Z,4.57
2023-05-14T10:09:14.141Z,4.97
2023-05-14T10:10:17.307Z,4.07
2023-05-14T10:11:25.796Z,4.85
2023-05-14T10:12:28.985Z,3.80
2023-05-14T10:13:31.783Z,3.97
2023-05-14T10:14:39.056Z,4.32
2023-05-14T10:15:43.548Z,3.70
2023-05-14T10:16:49.960Z,4.00
2023-05-14T10:17:55.025Z,3.80
2023-05-14T10:19:00.899Z,4.72
2023-05-14T10:20:05.398Z,4.40
2023-05-14T10:21:08.104Z,4.45
2023-05-14T10:22:11.540Z,4.32
2023-05-14T10:23:13.290Z,3.92
2023-05-14T10:24:15.343Z,4.43
2023-05-14T10:25:17.048Z,4.15
2023-05-14T10:26:18.919Z,5.10
2023-05-14T10:27:21.845Z,4.60
2023-05-14T10:28:23.694Z,4.38
2023-05-14T10:29:35.206Z,4.47
2023-05-14T10:30:41.832Z,3.85
2023-05-14T10:31:56.083Z,4.32
2023-05-14T10:33:08.349Z,4.70
2023-05-14T10:34:30.345Z,4.43
2023-05-14T10:35:51.148Z,4.47
2023-05-14T10:36:52.756Z,4.25
2023-05-14T10:37:54.854Z,4.30
2023-05-14T10:38:57.521Z,4.03
2023-05-14T10:40:05.941Z,3.70
2023-05-14T10:41:12.299Z,5.07
2023-05-14T10:42:19.303Z,4.30
2023-05-14T10:43:21.846Z,4.13
2023-05-14T10:45:00.658Z,3.88
2023-05-14T10:46:28.943Z,4.07
2023-05-14T10:47:32.243Z,6.28
2023-05-14T10:48:34.539Z,4.32
2023-05-14T10:49:43.415Z,4.45
2023-05-14T10:50:48.686Z,4.60
2023-05-14T10:51:57.373Z,3.60
2023-05-14T10:52:59.634Z,3.42
2023-05-14T10:54:02.126Z,3.80
2023-05-14T10:55:07.996Z,4.60
2023-05-14T10:56:11.326Z,4.18
2023-05-14T10:57:14.353Z,3.88
2023-05-14T10:58:16.746Z,4.22
2023-05-14T10:59:19.087Z,4.13
2023-05-14T11:00:27.065Z,4.10
2023-05-14T11:01:29.292Z,6.30
2023-05-14T11:02:33.614Z,6.80
2023-05-14T11:03:45.696Z,4.25
2023-05-14T11:04:55.971Z,3.75
2023-05-14T11:05:58.004Z,3.78
2023-05-14T11:07:01.536Z,4.80
2023-05-14T11:08:08.015Z,3.80
2023-05-14T11:09:10.461Z,3.75
2023-05-14T11:10:14.041Z,3.70
2023-05-14T11:11:16.094Z,3.78
2023-05-14T11:12:18.656Z,3.00
2023-05-14T11:13:20.734Z,3.03
2023-05-14T11:14:23.279Z,3.47
2023-05-14T11:15:27.020Z,3.65
2023-05-14T11:16:31.230Z,3.13
2023-05-14T11:17:33.655Z,3.50
2023-05-14T11:18:38.781Z,3.38
2023-05-14T11:19:43.355Z,4.05
2023-05-14T11:20:45.297Z,3.15
2023-05-14T11:21:47.644Z,3.38
2023-05-14T11:22:52.334Z,3.55
2023-05-14T11:23:55.082Z,2.90
2023-05-14T11:24:57.253Z,4.10
2023-05-14T11:25:59.319Z,3.05
2023-05-14T11:27:01.516Z,3.95
2023-05-14T11:28:04.976Z,3.42
2023-05-14T11:29:10.646Z,3.88
2023-05-14T11:30:20.537Z,3.15
2023-05-14T11:31:25.923Z,3.40
2023-05-14T11:32:28.302Z,3.00
2023-05-14T11:33:31.593Z,3.10
2023-05-14T11:34:37.848Z,3.63
2023-05-14T11:35:43.014Z,4.85
2023-05-14T11:36:45.136Z,3.33
2023-05-14T11:37:52.740Z,3.83
2023-05-14T11:38:59.598Z,4.10
2023-05-14T11:40:05.467Z,4.13
2023-05-14T11:41:07.823Z,3.35
2023-05-14T13:43:32.423Z,3.75
2023-05-14T13:44:37.283Z,4.20
2023-05-14T13:45:39.165Z,4.57
2023-05-14T13:46:41.388Z,4.38
2023-05-14T13:47:43.325Z,3.95
2023-05-14T13:48:46.761Z,3.53
2023-05-14T13:49:48.663Z,3.72
2023-05-14T13:50:52.229Z,3.90
2023-05-14T13:51:54.184Z,3.75
2023-05-14T13:52:56.401Z,3.65
2023-05-14T13:54:01.239Z,3.40
2023-05-14T13:55:07.365Z,4.30
2023-05-14T13:56:09.602Z,4.03
2023-05-14T13:57:11.740Z,4.07
2023-05-14T13:58:14.500Z,3.33
2023-05-14T13:59:16.538Z,3.70
2023-05-14T14:00:20.843Z,3.80
2023-05-14T14:01:25.929Z,4.22
2023-05-14T14:02:27.807Z,3.80
2023-05-14T14:03:29.999Z,4.47
2023-05-14T14:04:32.381Z,3.90
2023-05-14T14:05:38.274Z,4.10
2023-05-14T14:06:40.884Z,3.47
2023-05-14T14:07:43.929Z,3.50
2023-05-14T14:08:45.941Z,3.25
2023-05-14T14:09:47.725Z,5.07
2023-05-14T14:10:49.887Z,4.05
2023-05-14T14:11:51.994Z,3.88
2023-05-14T14:12:54.381Z,5.53
2023-05-14T14:13:56.360Z,5.35
2023-05-14T14:14:59.042Z,3.60
2023-05-14T14:16:03.375Z,3.55
2023-05-14T14:17:05.265Z,3.50
2023-05-14T14:18:07.327Z,4.55
2023-05-14T14:19:09.644Z,5.25
2023-05-14T14:20:11.629Z,3.38
2023-05-14T14:21:13.327Z,5.93
2023-05-14T14:22:20.028Z,3.30
2023-05-14T14:23:23.368Z,5.63
2023-05-14T14:24:26.277Z,5.22
2023-05-14T14:25:28.160Z,4.35
2023-05-14T14:26:31.283Z,5.57
2023-05-14T14:27:37.716Z,4.88
2023-05-14T14:28:40.503Z,3.80
2023-05-14T14:29:43.746Z,4.10
2023-05-14T14:30:45.340Z,4.80
2023-05-14T14:31:46.950Z,3.85
2023-05-14T14:32:49.461Z,3.58
2023-05-14T14:33:51.061Z,4.18
2023-05-14T14:34:52.868Z,3.67
2023-05-14T14:35:54.547Z,5.25
2023-05-14T14:36:56.246Z,7.25
2023-05-14T14:37:57.902Z,4.80
2023-05-14T14:39:00.609Z,4.90
2023-05-14T14:40:02.643Z,6.65
2023-05-14T14:41:08.122Z,6.13
2023-05-14T14:42:09.916Z,5.85
2023-05-14T14:43:13.144Z,4.38
2023-05-14T14:44:14.826Z,5.68
2023-05-14T14:45:16.521Z,4.97
2023-05-14T14:46:18.229Z,4.07
2023-05-14T14:47:19.843Z,4.72
2023-05-14T14:48:38.690Z,5.25
2023-05-14T14:49:40.662Z,3.95
2023-05-14T14:50:43.377Z,4.47
2023-05-14T14:51:47.147Z,5.88
2023-05-14T14:52:49.262Z,4.78
2023-05-14T14:53:51.039Z,3.67
2023-05-14T14:54:53.078Z,5.70
2023-05-14T14:55:55.204Z,11.80
2023-05-14T14:56:57.329Z,6.00
2023-05-14T14:57:58.972Z,6.57
2023-05-14T14:59:01.532Z,4.72
2023-05-14T15:00:07.530Z,4.82
2023-05-14T15:01:09.733Z,4.28
2023-05-14T15:02:13.166Z,4.57
2023-05-14T15:03:15.427Z,5.10
2023-05-14T15:04:17.104Z,6.60
2023-05-14T15:05:18.687Z,5.78
2023-05-14T15:34:23.340Z,6.03
2023-05-14T15:35:26.621Z,3.42
2023-05-14T15:36:28.804Z,3.60
2023-05-14T15:38:00.624Z,4.30
2023-05-14T15:39:05.290Z,4.53
2023-05-14T15:40:12.066Z,5.07
2023-05-14T15:41:14.251Z,3.67
2023-05-14T15:42:17.347Z,4.53
2023-05-14T15:43:21.838Z,4.63
2023-05-14T15:44:23.913Z,3.58
2023-05-14T15:45:25.782Z,4.28
2023-05-14T15:46:29.839Z,3.42
2023-05-14T15:47:31.830Z,4.40
2023-05-14T15:48:33.620Z,5.32
2023-05-14T15:49:35.383Z,4.60
2023-05-14T15:50:37.318Z,3.40
2023-05-14T15:51:38.916Z,3.90
2023-05-14T15:52:44.355Z,4.50
2023-05-14T15:53:46.173Z,3.63
2023-05-14T15:54:48.106Z,3.58
2023-05-14T15:55:50.151Z,3.45
2023-05-14T15:56:51.751Z,4.38
2023-05-14T15:57:53.272Z,4.13
2023-05-14T15:58:54.989Z,3.65
2023-05-14T15:59:57.063Z,4.00
2023-05-14T16:00:58.696Z,3.22
2023-05-14T16:02:00.927Z,4.20
2023-05-14T16:03:05.105Z,4.05
2023-05-14T16:04:07.880Z,3.47
2023-05-14T16:05:11.212Z,3.10
2023-05-14T16:06:13.053Z,3.92
2023-05-14T16:07:16.032Z,3.92
2023-05-14T16:08:17.679Z,4.00
2023-05-14T16:09:21.119Z,4.32
2023-05-14T16:10:23.717Z,4.35
2023-05-14T16:11:25.500Z,4.25
2023-05-14T16:12:27.109Z,4.38
2023-05-14T16:13:28.826Z,3.65
2023-05-14T16:14:30.905Z,3.47
2023-05-14T16:15:32.616Z,3.67
2023-05-14T16:16:34.307Z,5.97
2023-05-14T16:17:36.377Z,3.88
2023-05-14T16:18:39.035Z,3.38
2023-05-14T16:19:40.727Z,5.05
2023-05-14T16:20:43.374Z,4.05
2023-05-14T16:21:45.426Z,3.88
2023-05-14T16:22:47.546Z,4.32
2023-05-14T16:23:50.880Z,5.57
2023-05-14T16:24:52.489Z,3.75
2023-05-14T16:28:59.893Z,5.05
2023-05-14T16:32:06.214Z,3.33
2023-05-14T16:33:07.806Z,4.35
2023-05-14T16:34:09.475Z,5.50
2023-05-14T16:35:12.332Z,3.83
2023-05-14T16:36:14.137Z,4.28
2023-05-14T16:37:16.754Z,3.83
2023-05-14T16:38:19.503Z,3.63
2023-05-14T16:39:21.517Z,4.20
2023-05-14T16:40:23.640Z,4.35
2023-05-14T16:41:25.680Z,3.72
2023-05-14T16:42:27.738Z,3.20
2023-05-14T16:43:29.332Z,3.40
2023-05-14T16:44:31.077Z,3.60
2023-05-14T16:45:34.940Z,4.03
2023-05-14T16:46:36.918Z,4.68
2023-05-14T16:47:38.595Z,4.13
2023-05-14T16:48:40.429Z,3.40
2023-05-14T16:49:42.100Z,3.50
2023-05-14T16:50:43.713Z,4.05
2023-05-14T16:51:46.674Z,4.68
2023-05-14T16:52:48.345Z,3.78
2023-05-14T16:53:50.183Z,3.55
2023-05-14T16:54:52.461Z,3.65
2023-05-14T16:55:54.494Z,3.22
2023-05-14T16:56:56.183Z,5.03
2023-05-14T16:57:57.841Z,3.28
2023-05-14T16:58:59.678Z,3.42
2023-05-14T17:00:01.591Z,3.25
2023-05-14T17:01:03.166Z,3.83
2023-05-14T17:02:04.991Z,3.67
2023-05-14T17:03:07.846Z,3.72
2023-05-14T17:04:10.025Z,3.50
2023-05-14T17:05:11.703Z,3.63
2023-05-14T17:06:13.478Z,4.00
2023-05-14T17:07:15.157Z,3.17
2023-05-14T17:08:17.112Z,3.30
2023-05-14T17:09:19.078Z,3.30
2023-05-14T17:10:20.668Z,3.42
2023-05-14T17:11:22.378Z,3.25
2023-05-14T17:12:24.702Z,3.53
2023-05-14T17:13:26.632Z,3.90
2023-05-14T17:14:28.262Z,4.20
2023-05-14T17:15:30.411Z,5.90
2023-05-14T17:16:32.139Z,5.80
2023-05-14T17:17:34.209Z,4.40
2023-05-14T17:18:36.001Z,3.80
2023-05-14T17:19:37.628Z,4.40
2023-05-14T17:20:39.342Z,4.68
2023-05-14T17:21:41.071Z,4.30
2023-05-14T17:22:42.728Z,3.50
2023-05-14T17:23:44.363Z,3.78
2023-05-14T17:24:46.047Z,3.70
2023-05-14T17:25:48.501Z,3.67
2023-05-14T17:26:50.173Z,3.30
2023-05-14T17:27:55.430Z,3.55
2023-05-14T17:28:57.353Z,3.72
2023-05-14T17:30:00.894Z,3.20
2023-05-14T17:31:03.537Z,3.92
2023-05-14T17:32:05.531Z,3.00
2023-05-14T17:33:07.607Z,3.13
2023-05-14T17:34:09.257Z,4.32
2023-05-14T17:35:11.841Z,6.40
2023-05-14T17:36:15.117Z,4.85
2023-05-14T17:37:16.994Z,3.42
2023-05-14T17:38:19.545Z,3.95
2023-05-14T17:39:21.348Z,4.50
2023-05-14T17:40:22.923Z,4.88
2023-05-14T17:41:24.549Z,3.95
2023-05-14T17:42:26.364Z,3.83
2023-05-14T17:43:28.232Z,3.78
2023-05-14T17:44:31.717Z,3.28
2023-05-14T17:45:42.637Z,3.35
2023-05-14T17:46:56.799Z,3.63
2023-05-14T17:47:58.486Z,6.80
2023-05-14T17:49:01.637Z,4.15
2023-05-14T17:50:04.283Z,3.20
2023-05-14T17:51:06.076Z,3.53
2023-05-14T17:52:07.744Z,3.60
2023-05-14T17:53:09.422Z,3.28
2023-05-14T17:54:11.403Z,4.35
2023-05-14T17:55:13.419Z,3.60
2023-05-14T17:56:17.292Z,3.72
2023-05-14T17:57:18.920Z,4.03
2023-05-14T17:58:20.619Z,3.80
2023-05-14T17:59:24.202Z,3.67
2023-05-14T18:00:26.036Z,5.32
2023-05-14T18:01:27.741Z,3.38
2023-05-14T18:02:29.763Z,3.77
2023-05-14T18:03:31.392Z,3.50
2023-05-14T18:04:33.233Z,3.63
2023-05-14T18:05:35.015Z,4.03
2023-05-14T18:06:36.641Z,3.67
2023-05-14T18:07:38.258Z,3.63
2023-05-14T18:08:39.859Z,3.83
2023-05-14T18:09:41.604Z,5.00
2023-05-14T18:10:43.204Z,5.07
2023-05-14T18:11:44.928Z,4.03
2023-05-14T18:12:46.538Z,4.35
2023-05-14T18:13:48.155Z,3.83
2023-05-14T18:14:49.931Z,3.45
2023-05-14T18:15:54.362Z,4.18
2023-05-14T18:16:56.337Z,3.58
2023-05-14T18:17:58.059Z,3.88
2023-05-14T18:19:00.634Z,3.95
2023-05-14T18:20:02.694Z,4.55
2023-05-14T18:21:04.608Z,5.00
2023-05-14T18:22:06.255Z,3.92
2023-05-14T18:23:08.241Z,4.03
2023-05-14T18:24:10.101Z,4.18
2023-05-14T18:25:13.424Z,4.15
2023-05-14T18:26:15.291Z,4.40
2023-05-14T18:27:17.271Z,3.97
2023-05-14T18:28:19.179Z,4.18
2023-05-14T18:29:20.923Z,3.58
2023-05-14T18:30:23.434Z,3.67
2023-05-14T18:31:28.089Z,3.75
2023-05-14T18:32:32.135Z,4.45
2023-05-14T18:33:33.933Z,3.72
2023-05-14T18:34:35.690Z,3.60
2023-05-14T18:35:37.484Z,4.30
2023-05-14T18:36:39.135Z,3.70
2023-05-14T18:37:41.440Z,3.55
2023-05-14T18:38:44.185Z,3.95
2023-05-14T18:39:45.824Z,4.18
2023-05-14T18:40:52.172Z,3.60
2023-05-14T18:41:54.228Z,4.32
2023-05-14T18:42:57.224Z,4.30
2023-05-14T18:43:59.041Z,4.45
2023-05-14T18:45:01.070Z,4.38
2023-05-14T18:46:04.295Z,5.07
2023-05-14T18:47:06.161Z,4.38
2023-05-14T18:48:08.329Z,4.32
2023-05-14T18:49:10.222Z,4.63
2023-05-14T18:50:11.998Z,4.45
2023-05-14T18:51:13.687Z,4.57
2023-05-14T18:52:15.485Z,3.90
2023-05-14T18:53:17.256Z,4.45
2023-05-14T18:54:19.624Z,5.32
2023-05-14T18:55:23.254Z,4.03
2023-05-14T18:56:26.033Z,4.70
2023-05-14T18:57:31.874Z,4.70
2023-05-14T18:58:33.507Z,4.40
2023-05-14T18:59:35.130Z,4.60
2023-05-14T19:00:36.845Z,5.57
2023-05-14T19:01:40.324Z,4.10
2023-05-14T19:02:42.512Z,4.72
2023-05-14T19:03:45.962Z,5.07
2023-05-14T19:04:52.952Z,4.22
2023-05-14T19:05:55.046Z,5.18
2023-05-14T19:06:56.780Z,4.70
2023-05-14T19:07:58.457Z,6.78
2023-05-14T19:09:00.934Z,5.72
2023-05-14T19:10:04.162Z,5.25
2023-05-14T19:11:07.047Z,6.28
2023-05-14T19:12:09.236Z,4.90
2023-05-14T19:13:10.892Z,5.45
2023-05-14T19:14:12.854Z,6.22
2023-05-14T19:15:14.885Z,5.57
2023-05-14T19:16:17.926Z,6.20
2023-05-14T19:17:21.855Z,5.50
2023-05-14T19:18:23.770Z,5.00
2023-05-14T19:19:25.453Z,5.30
2023-05-14T19:20:27.457Z,4.63
2023-05-14T19:21:29.093Z,6.28
2023-05-14T19:22:32.105Z,5.18
2023-05-14T19:23:33.772Z,5.32
2023-05-14T19:24:38.077Z,5.68
2023-05-14T19:25:39.772Z,5.15
2023-05-14T19:26:42.168Z,4.38
2023-05-14T19:27:45.034Z,5.32
2023-05-14T19:28:46.617Z,4.72
2023-05-14T19:29:48.285Z,5.20
2023-05-14T19:30:51.341Z,5.35
2023-05-14T19:31:53.519Z,6.25
2023-05-14T19:32:55.367Z,7.38
2023-05-14T19:33:57.037Z,6.88
2023-05-14T19:34:58.606Z,5.78
2023-05-14T19:36:01.013Z,5.80
2023-05-14T19:37:04.561Z,6.03
2023-05-14T19:38:06.576Z,10.90
2023-05-14T19:39:08.923Z,6.63
2023-05-14T19:40:10.913Z,5.60
2023-05-14T19:41:12.571Z,6.32
2023-05-14T19:42:14.512Z,5.93
2023-05-14T19:43:16.141Z,6.85
2023-05-14T19:44:17.685Z,6.03
2023-05-14T19:45:19.487Z,5.60
2023-05-14T19:46:21.662Z,6.30
2023-05-14T19:47:23.796Z,5.82
2023-05-14T19:48:25.695Z,5.97
2023-05-14T19:49:27.470Z,7.47
2023-05-14T19:50:29.568Z,6.30
2023-05-14T19:51:31.342Z,6.07
2023-05-14T19:52:33.352Z,7.68
2023-05-14T19:53:35.044Z,6.60
2023-05-14T19:54:37.451Z,6.13
2023-05-14T19:55:39.429Z,5.75
2023-05-14T19:56:41.035Z,7.40
2023-05-14T19:57:42.994Z,4.85
2023-05-14T19:58:44.837Z,6.15
2023-05-14T19:59:46.572Z,5.40
2023-05-14T20:00:51.277Z,5.47
2023-05-14T20:01:54.737Z,5.15
2023-05-14T20:02:59.767Z,5.57
2023-05-14T20:04:02.862Z,5.60
2023-05-14T20:05:07.554Z,6.00
2023-05-14T20:06:09.211Z,5.68
2023-05-14T20:07:12.111Z,5.80
2023-05-14T20:08:13.674Z,5.25
2023-05-14T20:09:15.669Z,5.13
2023-05-14T20:10:17.287Z,5.50
2023-05-14T20:11:19.767Z,5.55
2023-05-14T20:12:22.923Z,5.50
2023-05-14T20:13:25.345Z,5.45
2023-05-14T20:14:27.279Z,6.80
2023-05-14T20:15:29.051Z,5.50
2023-05-14T20:16:30.984Z,5.82
2023-05-14T20:17:32.671Z,5.78
2023-05-14T20:18:34.307Z,5.43
2023-05-14T20:19:36.343Z,5.75
2023-05-14T20:20:38.398Z,5.70
2023-05-14T20:21:40.068Z,4.30
2023-05-14T20:22:44.183Z,5.38
2023-05-14T21:08:13.844Z,6.68
2023-05-14T21:09:16.822Z,7.65
2023-05-14T21:10:18.425Z,6.97
2023-05-14T21:11:21.919Z,6.22
2023-05-14T21:12:23.536Z,4.95
2023-05-14T21:13:25.236Z,5.05
2023-05-14T21:14:26.973Z,5.07
2023-05-14T21:15:30.909Z,5.43
2023-05-14T21:16:33.039Z,5.68
2023-05-14T21:17:34.654Z,6.10
2023-05-14T21:18:36.818Z,7.20
2023-05-14T21:19:38.521Z,6.05
2023-05-14T21:20:41.010Z,5.55
2023-05-14T21:21:45.275Z,6.68
2023-05-14T21:22:46.952Z,6.60
2023-05-14T21:23:48.555Z,8.70
2023-05-14T21:24:50.908Z,7.35
2023-05-14T21:25:54.948Z,6.03
2023-05-14T21:27:00.132Z,6.85
2023-05-14T21:28:01.935Z,8.77
2023-05-14T21:29:03.773Z,6.65
2023-05-14T21:30:05.764Z,6.80